createdAt,value
2023-05-06T00:01:07.042Z,4.10
2023-05-06T00:04:09.029Z,4.13
2023-05-06T00:07:11.136Z,3.95
2023-05-06T00:10:13.072Z,3.78
2023-05-06T00:13:15.041Z,4.07
2023-05-06T00:16:17.259Z,4.30
2023-05-06T00:19:19.138Z,5.05
2023-05-06T00:22:21.048Z,5.05
2023-05-06T00:25:22.897Z,5.03
2023-05-06T00:28:24.753Z,4.77
2023-05-06T00:31:26.659Z,4.70
2023-05-06T00:34:28.580Z,4.93
2023-05-06T00:37:30.419Z,5.25
2023-05-06T00:40:32.220Z,5.63
2023-05-06T00:43:34.058Z,5.47
2023-05-06T00:46:37.188Z,5.60
2023-05-06T00:49:39.018Z,5.38
2023-05-06T00:52:41.171Z,4.93
2023-05-06T00:55:43.062Z,5.47
2023-05-06T00:58:45.432Z,5.27
2023-05-06T01:01:47.499Z,5.33
2023-05-06T01:04:49.389Z,5.57
2023-05-06T01:08:03.949Z,5.15
2023-05-06T01:11:26.918Z,5.38
2023-05-06T01:14:47.413Z,4.93
2023-05-06T01:17:56.699Z,5.17
2023-05-06T01:20:59.348Z,5.32
2023-05-06T01:24:01.223Z,4.85
2023-05-06T01:27:03.029Z,5.38
2023-05-06T01:30:05.209Z,4.87
2023-05-06T01:33:18.694Z,3.97
2023-05-06T01:36:25.179Z,4.43
2023-05-06T01:39:27.498Z,4.25
2023-05-06T01:42:29.363Z,4.15
2023-05-06T01:45:32.081Z,4.27
2023-05-06T01:48:39.022Z,4.47
2023-05-06T01:51:41.016Z,4.78
2023-05-06T01:54:42.849Z,4.32
2023-05-06T01:57:44.778Z,4.30
2023-05-06T02:00:46.744Z,4.07
2023-05-06T02:03:53.270Z,4.47
2023-05-06T02:06:55.309Z,4.13
2023-05-06T02:09:57.110Z,4.43
2023-05-06T02:12:59.091Z,4.55
2023-05-06T02:16:01.420Z,4.17
2023-05-06T02:19:06.249Z,4.93
2023-05-06T02:22:08.097Z,4.53
2023-05-06T02:25:10.770Z,4.68
2023-05-06T02:28:12.800Z,4.28
2023-05-06T02:31:17.791Z,4.27
2023-05-06T02:34:19.671Z,4.57
2023-05-06T02:37:21.580Z,4.78
2023-05-06T02:40:23.478Z,4.82
2023-05-06T02:43:25.272Z,5.10
2023-05-06T02:46:27.219Z,4.43
2023-05-06T02:49:32.628Z,4.70
2023-05-06T02:52:35.227Z,5.32
2023-05-06T02:55:37.138Z,6.13
2023-05-06T02:58:39.003Z,7.70
2023-05-06T03:01:40.984Z,8.13
2023-05-06T03:04:46.637Z,9.27
2023-05-06T03:07:48.670Z,11.65
2023-05-06T03:10:51.050Z,11.68
2023-05-06T03:13:52.913Z,10.93
2023-05-06T03:16:54.781Z,10.87
2023-05-06T03:19:56.812Z,11.37
2023-05-06T03:22:58.683Z,11.48
2023-05-06T03:26:00.510Z,11.55
2023-05-06T03:29:02.529Z,12.32
2023-05-06T03:32:04.743Z,11.77
2023-05-06T03:35:13.035Z,10.70
2023-05-06T03:38:14.861Z,9.52
2023-05-06T03:41:16.711Z,8.98
2023-05-06T03:44:18.621Z,8.55
2023-05-06T03:47:20.459Z,8.70
2023-05-06T03:50:26.140Z,8.67
2023-05-06T03:53:28.335Z,9.02
2023-05-06T03:56:30.602Z,8.32
2023-05-06T03:59:32.403Z,8.77
2023-05-06T04:02:35.642Z,8.30
2023-05-06T04:05:37.512Z,8.70
2023-05-06T04:08:39.370Z,8.75
2023-05-06T04:11:41.170Z,8.25
2023-05-06T04:14:42.946Z,7.80
2023-05-06T04:17:44.898Z,8.23
2023-05-06T04:20:51.597Z,7.97
2023-05-06T04:23:54.828Z,7.55
2023-05-06T04:26:56.910Z,7.88
2023-05-06T04:29:59.027Z,7.60
2023-05-06T04:33:00.890Z,7.90
2023-05-06T04:36:06.554Z,7.00
2023-05-06T04:39:08.970Z,7.70
2023-05-06T04:42:10.949Z,8.07
2023-05-06T04:45:12.941Z,7.82
2023-05-06T04:48:18.753Z,8.13
2023-05-06T04:51:25.112Z,8.40
2023-05-06T04:54:26.924Z,8.27
2023-05-06T04:57:28.730Z,8.38
2023-05-06T05:00:30.830Z,8.70
2023-05-06T05:03:32.817Z,8.37
2023-05-06T05:06:34.697Z,7.63
2023-05-06T05:09:36.608Z,8.25
2023-05-06T05:12:38.553Z,8.77
2023-05-06T05:15:40.623Z,8.00
2023-05-06T05:18:42.498Z,8.60
2023-05-06T05:21:47.833Z,8.37
2023-05-06T05:24:49.588Z,9.30
2023-05-06T05:27:51.592Z,8.23
2023-05-06T05:30:53.466Z,8.25
2023-05-06T05:33:55.496Z,9.00
2023-05-06T05:37:03.638Z,9.13
2023-05-06T05:40:06.315Z,8.32
2023-05-06T05:43:08.156Z,8.45
2023-05-06T05:46:10.147Z,9.43
2023-05-06T05:49:11.966Z,8.73
2023-05-06T05:52:13.752Z,9.33
2023-05-06T05:55:16.032Z,9.75
2023-05-06T05:58:17.964Z,9.93
2023-05-06T06:01:19.743Z,9.55
2023-05-06T06:04:21.714Z,8.93
2023-05-06T06:07:28.208Z,8.93
2023-05-06T06:10:30.010Z,9.45
2023-05-06T06:13:32.399Z,9.40
2023-05-06T06:16:34.354Z,9.48
2023-05-06T06:19:36.221Z,9.57
2023-05-06T06:22:42.227Z,8.97
2023-05-06T06:25:44.043Z,9.15
2023-05-06T06:28:45.886Z,8.95
2023-05-06T06:31:47.882Z,8.93
2023-05-06T06:34:49.812Z,8.97
2023-05-06T06:37:56.268Z,9.20
2023-05-06T06:40:58.131Z,9.00
2023-05-06T06:43:59.957Z,8.70
2023-05-06T06:47:01.889Z,8.77
2023-05-06T06:50:03.865Z,8.50
2023-05-06T06:53:06.474Z,8.10
2023-05-06T06:56:14.578Z,8.55
2023-05-06T06:59:16.444Z,8.38
2023-05-06T07:02:18.286Z,8.02
2023-05-06T07:05:20.256Z,7.27
2023-05-06T07:08:22.511Z,7.30
2023-05-06T07:11:24.408Z,7.78
2023-05-06T07:14:26.363Z,8.05
2023-05-06T07:17:28.153Z,7.40
2023-05-06T07:20:30.996Z,7.70
2023-05-06T07:23:32.827Z,7.47
2023-05-06T07:26:38.026Z,9.05
2023-05-06T07:29:39.857Z,7.82
2023-05-06T07:32:41.894Z,7.93
2023-05-06T07:35:43.819Z,12.23
2023-05-06T07:38:45.810Z,8.47
2023-05-06T07:41:47.625Z,7.72
2023-05-06T07:44:49.609Z,7.60
2023-05-06T07:47:51.665Z,7.55
2023-05-06T07:50:53.613Z,7.70
2023-05-06T07:53:55.465Z,7.30
2023-05-06T07:56:57.322Z,6.95
2023-05-06T07:59:59.179Z,7.07
2023-05-06T08:03:01.051Z,7.10
2023-05-06T08:06:03.097Z,7.00
2023-05-06T08:09:05.312Z,6.90
2023-05-06T08:12:07.463Z,7.22
2023-05-06T08:15:10.435Z,7.07
2023-05-06T08:18:21.741Z,7.45
2023-05-06T08:21:24.858Z,6.97
2023-05-06T08:24:27.086Z,6.50
2023-05-06T08:27:28.999Z,6.72
2023-05-06T08:30:31.046Z,9.30
2023-05-06T08:33:33.008Z,11.68
2023-05-06T08:36:34.872Z,10.87
2023-05-06T08:39:36.729Z,9.53
2023-05-06T08:42:38.624Z,7.50
2023-05-06T08:45:42.005Z,8.18
2023-05-06T08:48:44.012Z,7.75
2023-05-06T08:51:46.356Z,8.20
2023-05-06T08:54:48.231Z,8.37
2023-05-06T08:57:50.011Z,6.50
2023-05-06T09:00:52.030Z,7.72
2023-05-06T09:03:55.398Z,6.47
2023-05-06T09:06:58.987Z,6.53
2023-05-06T09:10:01.005Z,6.23
2023-05-06T09:13:03.028Z,5.13
2023-05-06T09:16:05.351Z,4.50
2023-05-06T09:19:07.335Z,5.43
2023-05-06T09:22:09.162Z,4.33
2023-05-06T09:25:12.276Z,5.60
2023-05-06T09:28:14.753Z,5.18
2023-05-06T09:31:16.681Z,9.18
2023-05-06T09:34:18.947Z,10.30
2023-05-06T09:37:21.218Z,7.00
2023-05-06T09:40:26.443Z,9.43
2023-05-06T09:43:30.071Z,5.72
2023-05-06T09:46:31.957Z,6.47
2023-05-06T09:49:33.806Z,8.80
2023-05-06T09:52:35.735Z,4.90
2023-05-06T09:55:37.614Z,6.80
2023-05-06T09:58:39.485Z,5.13
2023-05-06T10:01:41.504Z,4.07
2023-05-06T10:04:43.613Z,3.50
2023-05-06T10:07:45.718Z,3.80
2023-05-06T10:10:47.813Z,4.30
2023-05-06T10:13:49.723Z,3.42
2023-05-06T10:16:51.605Z,3.13
2023-05-06T10:19:57.460Z,2.75
2023-05-06T10:23:24.027Z,3.10
2023-05-06T10:26:26.210Z,3.50
2023-05-06T10:29:27.989Z,3.70
2023-05-06T10:32:32.500Z,4.03
2023-05-06T10:35:50.944Z,3.70
2023-05-06T10:38:57.608Z,3.50
2023-05-06T10:41:59.432Z,3.33
2023-05-06T10:45:05.547Z,4.55
2023-05-06T10:48:09.122Z,4.18
2023-05-06T10:51:16.774Z,8.20
2023-05-06T10:54:18.608Z,12.73
2023-05-06T10:57:27.300Z,8.33
2023-05-06T11:00:35.548Z,23.13
2023-05-06T11:03:37.764Z,7.15
2023-05-06T11:06:42.201Z,4.78
2023-05-06T11:10:00.370Z,3.10
2023-05-06T11:13:32.277Z,4.70
2023-05-06T11:16:53.264Z,8.45
2023-05-06T11:20:32.240Z,5.20
2023-05-06T11:23:43.580Z,4.53
2023-05-06T11:26:45.561Z,4.27
2023-05-06T11:29:47.486Z,9.73
2023-05-06T11:32:49.421Z,6.13
2023-05-06T11:35:51.248Z,3.70
2023-05-06T11:38:53.276Z,3.75
2023-05-06T11:41:55.251Z,4.00
2023-05-06T11:45:00.946Z,5.27
2023-05-06T11:48:02.797Z,10.77
2023-05-06T11:51:04.776Z,11.43
2023-05-06T11:54:08.808Z,11.32
2023-05-06T11:57:10.663Z,5.30
2023-05-06T12:00:13.515Z,4.30
2023-05-06T12:03:15.692Z,4.18
2023-05-06T12:06:19.299Z,3.90
2023-05-06T12:09:22.395Z,3.38
2023-05-06T12:12:24.216Z,3.10
2023-05-06T12:15:26.308Z,3.43
2023-05-06T12:18:28.111Z,6.40
2023-05-06T12:21:30.364Z,5.28
2023-05-06T12:24:32.160Z,3.58
2023-05-06T12:27:34.951Z,3.00
2023-05-06T12:30:36.766Z,3.27
2023-05-06T12:33:46.549Z,2.92
2023-05-06T12:36:48.433Z,2.90
2023-05-06T12:39:50.336Z,3.22
2023-05-06T12:42:58.032Z,3.70
2023-05-06T12:46:07.474Z,3.17
2023-05-06T12:49:09.429Z,3.30
2023-05-06T12:52:11.733Z,3.10
2023-05-06T12:55:13.544Z,3.20
2023-05-06T12:58:16.314Z,3.60
2023-05-06T13:01:19.178Z,3.30
2023-05-06T13:04:21.653Z,3.53
2023-05-06T13:07:23.532Z,3.70
2023-05-06T13:10:25.539Z,3.38
2023-05-06T13:13:27.366Z,3.50
2023-05-06T13:16:30.913Z,3.43
2023-05-06T13:19:33.598Z,3.40
2023-05-06T13:22:50.736Z,3.38
2023-05-06T13:26:04.277Z,3.05
2023-05-06T13:29:07.409Z,3.30
2023-05-06T13:32:09.292Z,3.17
2023-05-06T13:35:11.389Z,3.80
2023-05-06T13:38:13.297Z,3.67
2023-05-06T13:41:15.194Z,4.22
2023-05-06T13:44:17.718Z,3.40
2023-05-06T13:47:21.269Z,3.63
2023-05-06T13:50:23.047Z,3.13
2023-05-06T13:53:24.921Z,3.33
2023-05-06T13:56:26.958Z,3.60
2023-05-06T13:59:28.737Z,3.17
2023-05-06T14:02:31.285Z,3.30
2023-05-06T14:05:33.162Z,2.88
2023-05-06T14:08:35.060Z,3.10
2023-05-06T14:11:36.970Z,2.85
2023-05-06T14:14:38.795Z,3.37
2023-05-06T14:17:41.020Z,3.00
2023-05-06T14:20:43.009Z,3.00
2023-05-06T14:23:44.884Z,3.60
2023-05-06T14:26:46.750Z,3.15
2023-05-06T14:29:48.679Z,3.00
2023-05-06T14:32:50.676Z,3.30
2023-05-06T14:35:53.091Z,3.38
2023-05-06T14:38:54.929Z,3.08
2023-05-06T14:41:56.842Z,3.10
2023-05-06T14:44:58.664Z,2.93
2023-05-06T14:48:00.621Z,3.17
2023-05-06T14:51:02.644Z,3.03
2023-05-06T14:54:04.610Z,3.30
2023-05-06T14:57:06.375Z,3.40
2023-05-06T15:00:10.279Z,3.30
2023-05-06T15:03:12.329Z,3.13
2023-05-06T15:06:14.130Z,3.30
2023-05-06T15:09:16.018Z,3.30
2023-05-06T15:12:17.954Z,3.15
2023-05-06T15:15:19.868Z,3.33
2023-05-06T15:18:21.875Z,3.70
2023-05-06T15:21:23.695Z,3.95
2023-05-06T15:24:26.294Z,4.13
2023-05-06T15:27:28.159Z,4.20
2023-05-06T15:30:29.993Z,3.87
2023-05-06T15:33:31.813Z,3.83
2023-05-06T15:36:33.594Z,4.18
2023-05-06T15:39:37.547Z,4.60
2023-05-06T15:42:39.552Z,4.07
2023-05-06T15:45:41.493Z,4.10
2023-05-06T15:48:43.591Z,4.37
2023-05-06T15:51:45.499Z,4.18
2023-05-06T15:54:49.986Z,4.30
2023-05-06T15:57:53.798Z,3.85
2023-05-06T16:00:55.643Z,4.57
2023-05-06T16:03:57.644Z,4.57
2023-05-06T16:06:59.773Z,4.00
2023-05-06T16:10:02.703Z,4.68
2023-05-06T16:13:04.599Z,3.90
2023-05-06T16:16:06.636Z,4.50
2023-05-06T16:19:09.199Z,4.27
2023-05-06T16:22:11.117Z,4.50
2023-05-06T16:25:12.947Z,4.43
2023-05-06T16:28:14.968Z,3.97
2023-05-06T16:31:17.003Z,3.97
2023-05-06T16:34:19.150Z,4.10
2023-05-06T16:37:21.074Z,3.70
2023-05-06T16:40:22.957Z,4.45
2023-05-06T16:43:25.291Z,4.15
2023-05-06T16:46:28.953Z,4.37
2023-05-06T16:49:33.771Z,4.07
2023-05-06T16:52:35.907Z,4.30
2023-05-06T16:55:37.815Z,4.35
2023-05-06T16:58:39.663Z,4.30
2023-05-06T17:01:41.625Z,4.87
2023-05-06T17:04:43.527Z,4.20
2023-05-06T17:07:45.749Z,4.22
2023-05-06T17:10:47.654Z,4.38
2023-05-06T17:13:49.505Z,4.40
2023-05-06T17:16:52.358Z,4.77
2023-05-06T17:19:56.057Z,4.80
2023-05-06T17:22:57.896Z,4.78
2023-05-06T17:25:59.806Z,5.00
2023-05-06T17:29:01.694Z,4.88
2023-05-06T17:32:03.687Z,4.80
2023-05-06T17:35:09.844Z,4.93
2023-05-06T17:38:12.164Z,4.88
2023-05-06T17:41:14.106Z,4.85
2023-05-06T17:44:18.350Z,5.15
2023-05-06T17:47:23.103Z,4.60
2023-05-06T17:50:25.066Z,4.77
2023-05-06T17:53:27.232Z,5.25
2023-05-06T17:56:29.038Z,5.43
2023-05-06T17:59:30.947Z,5.03
2023-05-06T18:02:32.755Z,5.10
2023-05-06T18:05:34.729Z,5.17
2023-05-06T18:08:37.157Z,5.43
2023-05-06T18:11:39.395Z,4.95
2023-05-06T18:14:41.545Z,5.00
2023-05-06T18:17:43.541Z,5.10
2023-05-06T18:20:45.404Z,5.30
2023-05-06T18:23:47.612Z,4.90
2023-05-06T18:26:50.233Z,4.90
2023-05-06T18:29:52.074Z,5.20
2023-05-06T18:32:55.926Z,5.23
2023-05-06T18:35:58.634Z,5.50
2023-05-06T18:39:01.453Z,5.05
2023-05-06T18:42:04.094Z,5.18
2023-05-06T18:45:07.140Z,5.53
2023-05-06T18:48:09.192Z,5.80
2023-05-06T18:51:11.964Z,5.90
2023-05-06T18:54:14.963Z,5.53
2023-05-06T18:57:19.726Z,6.20
2023-05-06T19:00:22.635Z,5.88
2023-05-06T19:03:24.468Z,7.03
2023-05-06T19:06:29.461Z,6.43
2023-05-06T19:09:36.898Z,6.07
2023-05-06T19:12:38.817Z,7.07
2023-05-06T19:15:40.785Z,7.30
2023-05-06T19:18:42.585Z,8.30
2023-05-06T19:21:44.431Z,7.97
2023-05-06T19:24:46.355Z,8.13
2023-05-06T19:27:48.227Z,7.05
2023-05-06T19:30:50.160Z,7.40
2023-05-06T19:33:52.057Z,7.57
2023-05-06T19:36:53.893Z,7.30
2023-05-06T19:39:55.716Z,6.28
2023-05-06T19:43:03.818Z,6.32
2023-05-06T19:46:06.491Z,6.82
2023-05-06T19:49:08.442Z,6.17
2023-05-06T19:52:14.794Z,5.37
2023-05-06T19:55:16.828Z,5.95
2023-05-06T19:58:19.601Z,5.45
2023-05-06T20:01:24.052Z,5.25
2023-05-06T20:04:26.471Z,5.20
2023-05-06T20:07:31.608Z,5.77
2023-05-06T20:10:33.704Z,5.63
2023-05-06T20:13:35.820Z,5.40
2023-05-06T20:16:39.077Z,5.50
2023-05-06T20:19:41.000Z,5.50
2023-05-06T20:22:45.659Z,5.20
2023-05-06T20:25:47.481Z,5.45
2023-05-06T20:28:49.344Z,5.13
2023-05-06T20:31:51.250Z,5.38
2023-05-06T20:34:53.463Z,5.30
2023-05-06T20:37:55.941Z,5.37
2023-05-06T20:40:59.032Z,4.80
2023-05-06T20:44:01.111Z,5.55
2023-05-06T20:47:03.848Z,5.57
2023-05-06T20:50:06.089Z,5.60
2023-05-06T20:53:11.470Z,5.80
2023-05-06T20:56:18.421Z,5.93
2023-05-06T20:59:20.589Z,5.63
2023-05-06T21:02:22.509Z,5.60
2023-05-06T21:05:24.454Z,5.50
2023-05-06T21:08:30.050Z,5.50
2023-05-06T21:11:31.843Z,5.50
2023-05-06T21:14:33.730Z,5.55
2023-05-06T21:17:35.740Z,6.03
2023-05-06T21:20:37.697Z,5.53
2023-05-06T21:23:39.583Z,5.80
2023-05-06T21:26:41.626Z,4.95
2023-05-06T21:29:43.639Z,5.22
2023-05-06T21:32:45.530Z,5.50
2023-05-06T21:35:47.696Z,5.00
2023-05-06T21:39:05.789Z,5.50
2023-05-06T21:42:07.679Z,6.28
2023-05-06T21:45:11.758Z,6.65
2023-05-06T21:48:13.875Z,6.57
2023-05-06T21:51:15.642Z,6.47
2023-05-06T21:54:21.782Z,6.13
2023-05-06T21:57:23.650Z,6.43
2023-05-06T22:00:25.628Z,6.10
2023-05-06T22:03:27.990Z,6.43
2023-05-06T22:06:29.866Z,6.63
2023-05-06T22:09:35.787Z,6.33
2023-05-06T22:12:37.787Z,6.43
2023-05-06T22:15:39.796Z,6.32
2023-05-06T22:18:41.836Z,6.20
2023-05-06T22:21:43.651Z,6.53
2023-05-06T22:24:45.451Z,6.93
2023-05-06T22:27:47.282Z,6.30
2023-05-06T22:30:49.194Z,6.05
2023-05-06T22:33:55.568Z,5.97
2023-05-06T22:36:59.087Z,5.97
2023-05-06T22:40:05.685Z,6.40
2023-05-06T22:43:07.572Z,5.97
2023-05-06T22:46:09.593Z,6.32
2023-05-06T22:49:11.461Z,5.93
2023-05-06T22:52:13.566Z,6.30
2023-05-06T22:55:19.761Z,5.90
2023-05-06T22:58:21.585Z,6.35
2023-05-06T23:01:25.367Z,6.22
2023-05-06T23:04:27.407Z,7.20
2023-05-06T23:07:29.222Z,7.10
2023-05-06T23:10:31.350Z,8.07
2023-05-06T23:13:36.314Z,8.43
2023-05-06T23:16:38.345Z,8.65
2023-05-06T23:19:40.210Z,8.77
2023-05-06T23:22:42.190Z,9.33
2023-05-06T23:25:47.879Z,8.73
2023-05-06T23:28:49.801Z,8.45
2023-05-06T23:31:51.674Z,8.38
2023-05-06T23:34:53.673Z,8.50
2023-05-06T23:37:55.428Z,8.27
2023-05-06T23:41:01.029Z,8.43
2023-05-06T23:44:02.840Z,8.43
2023-05-06T23:47:04.700Z,8.63
2023-05-06T23:50:07.111Z,8.13
2023-05-06T23:53:09.037Z,8.17
2023-05-06T23:56:10.889Z,8.33
2023-05-06T23:59:12.746Z,8.50
